JIGSW03 EGVN-EGVN
Flight info
| Callsign | JIGSW03 |
|---|---|
| Flight time | 1h 21m |
| Altitude | 11000 |
| Route | BZN DAVENTRY/RC MAM EGSH DAVENTRY/RC BZZ |
| Aircraft | A400/H-SDE2E3FGHIRWXY/LB1 |
Departure
| Time | 2026-05-04 19:26 |
|---|---|
| Airport | RAF Brize Norton (EGVN) |
Arrival
| Time | 2026-05-04 20:48 |
|---|---|
| Airport | RAF Brize Norton (EGVN) |
| Time | Latitude | Longitude | Altitude | Speed | Heading |
|---|---|---|---|---|---|
| 2026-05-04 19:10 | 51.74463 | -1.59231 | 273 ft | 0 kts | 115° |
| 2026-05-04 19:11 | 51.74465 | -1.59240 | 273 ft | 0 kts | 297° |
| 2026-05-04 19:19 | 51.74467 | -1.59244 | 273 ft | 1 kts | 297° |
| 2026-05-04 19:19 | 51.74473 | -1.59264 | 275 ft | 4 kts | 296° |
| 2026-05-04 19:19 | 51.74492 | -1.59329 | 273 ft | 8 kts | 295° |
| 2026-05-04 19:19 | 51.74497 | -1.59345 | 273 ft | 0 kts | 295° |
| 2026-05-04 19:20 | 51.74495 | -1.59337 | 273 ft | 2 kts | 295° |
| 2026-05-04 19:20 | 51.74488 | -1.59313 | 273 ft | 3 kts | 296° |
| 2026-05-04 19:20 | 51.74478 | -1.59280 | 278 ft | 3 kts | 296° |
| 2026-05-04 19:20 | 51.74470 | -1.59254 | 273 ft | 3 kts | 296° |
| 2026-05-04 19:21 | 51.74464 | -1.59234 | 273 ft | 0 kts | 295° |
| 2026-05-04 19:21 | 51.74464 | -1.59235 | 273 ft | 0 kts | 295° |
| 2026-05-04 19:22 | 51.74468 | -1.59247 | 273 ft | 3 kts | 295° |
| 2026-05-04 19:22 | 51.74494 | -1.59336 | 273 ft | 14 kts | 292° |
| 2026-05-04 19:22 | 51.74498 | -1.59375 | 273 ft | 3 kts | 255° |
| 2026-05-04 19:23 | 51.74459 | -1.59541 | 277 ft | 33 kts | 250° |
| 2026-05-04 19:23 | 51.74449 | -1.59895 | 276 ft | 24 kts | 296° |
| 2026-05-04 19:23 | 51.74496 | -1.60052 | 273 ft | 7 kts | 278° |
| 2026-05-04 19:23 | 51.74496 | -1.60069 | 273 ft | 0 kts | 271° |
| 2026-05-04 19:24 | 51.74495 | -1.60071 | 273 ft | 2 kts | 268° |
| 2026-05-04 19:24 | 51.74482 | -1.60212 | 273 ft | 9 kts | 272° |
| 2026-05-04 19:24 | 51.74486 | -1.60241 | 273 ft | 1 kts | 289° |
| 2026-05-04 19:24 | 51.74496 | -1.60259 | 277 ft | 0 kts | 320° |
| 2026-05-04 19:25 | 51.74540 | -1.60317 | 274 ft | 7 kts | 321° |
| 2026-05-04 19:25 | 51.74579 | -1.60368 | 274 ft | 14 kts | 322° |
| 2026-05-04 19:26 | 51.74623 | -1.60350 | 274 ft | 10 kts | 59° |
| 2026-05-04 19:26 | 51.74743 | -1.59770 | 271 ft | 102 kts | 75° |
| 2026-05-04 19:26 | 51.75020 | -1.58238 | 451 ft | 166 kts | 75° |
| 2026-05-04 19:26 | 51.75355 | -1.56300 | 1016 ft | 190 kts | 76° |
| 2026-05-04 19:27 | 51.75095 | -1.54289 | 2085 ft | 195 kts | 134° |
| 2026-05-04 19:27 | 51.73831 | -1.53504 | 3055 ft | 211 kts | 185° |
| 2026-05-04 19:27 | 51.72418 | -1.54402 | 3912 ft | 232 kts | 215° |
| 2026-05-04 19:27 | 51.71336 | -1.56421 | 4703 ft | 250 kts | 253° |
| 2026-05-04 19:28 | 51.71502 | -1.59206 | 5493 ft | 262 kts | 301° |
| 2026-05-04 19:28 | 51.72888 | -1.61077 | 6483 ft | 268 kts | 339° |
| 2026-05-04 19:28 | 51.74645 | -1.62174 | 7451 ft | 273 kts | 336° |
| 2026-05-04 19:28 | 51.76383 | -1.63459 | 8464 ft | 277 kts | 331° |
| 2026-05-04 19:29 | 51.78064 | -1.64987 | 9582 ft | 279 kts | 327° |
| 2026-05-04 19:29 | 51.79712 | -1.66747 | 10423 ft | 289 kts | 322° |
| 2026-05-04 19:29 | 51.81346 | -1.68748 | 11138 ft | 302 kts | 320° |
| 2026-05-04 19:29 | 51.83088 | -1.70937 | 11290 ft | 331 kts | 321° |
| 2026-05-04 19:30 | 51.84928 | -1.73171 | 11351 ft | 334 kts | 322° |
| 2026-05-04 19:30 | 51.86772 | -1.75312 | 11423 ft | 322 kts | 323° |
| 2026-05-04 19:30 | 51.88619 | -1.77417 | 11443 ft | 327 kts | 324° |
| 2026-05-04 19:30 | 51.90542 | -1.79444 | 11353 ft | 336 kts | 326° |
| 2026-05-04 19:31 | 51.92777 | -1.80662 | 11477 ft | 349 kts | 355° |
| 2026-05-04 19:31 | 51.95191 | -1.80136 | 11349 ft | 351 kts | 18° |
| 2026-05-04 19:31 | 51.97156 | -1.77872 | 11217 ft | 351 kts | 49° |
| 2026-05-04 19:31 | 51.98382 | -1.74484 | 11048 ft | 350 kts | 66° |
| 2026-05-04 19:32 | 51.99187 | -1.70810 | 11015 ft | 346 kts | 72° |
| 2026-05-04 19:32 | 51.99982 | -1.67225 | 11008 ft | 331 kts | 69° |
| 2026-05-04 19:32 | 52.00889 | -1.63829 | 10995 ft | 324 kts | 66° |
| 2026-05-04 19:32 | 52.01831 | -1.60506 | 11015 ft | 313 kts | 63° |
| 2026-05-04 19:33 | 52.02817 | -1.57267 | 11061 ft | 317 kts | 64° |
| 2026-05-04 19:33 | 52.03832 | -1.54092 | 11059 ft | 323 kts | 62° |
| 2026-05-04 19:33 | 52.04905 | -1.50839 | 11044 ft | 330 kts | 61° |
| 2026-05-04 19:33 | 52.05990 | -1.47656 | 11054 ft | 312 kts | 62° |
| 2026-05-04 19:34 | 52.07052 | -1.44434 | 11054 ft | 332 kts | 61° |
| 2026-05-04 19:34 | 52.08166 | -1.41130 | 11027 ft | 327 kts | 61° |
| 2026-05-04 19:34 | 52.09206 | -1.37947 | 11071 ft | 321 kts | 62° |
| 2026-05-04 19:34 | 52.10283 | -1.34660 | 11064 ft | 331 kts | 62° |
| 2026-05-04 19:35 | 52.10969 | -1.32502 | 11066 ft | 313 kts | 62° |
| 2026-05-04 19:35 | 52.12000 | -1.29404 | 11061 ft | 313 kts | 62° |
| 2026-05-04 19:35 | 52.13217 | -1.25282 | 11051 ft | 307 kts | 63° |
| 2026-05-04 19:35 | 52.13892 | -1.23171 | 11050 ft | 312 kts | 61° |
| 2026-05-04 19:36 | 52.14921 | -1.20133 | 11052 ft | 308 kts | 60° |
| 2026-05-04 19:36 | 52.15979 | -1.17106 | 11046 ft | 307 kts | 60° |
| 2026-05-04 19:36 | 52.17010 | -1.14031 | 11045 ft | 311 kts | 62° |
| 2026-05-04 19:36 | 52.18011 | -1.10965 | 11041 ft | 302 kts | 62° |
| 2026-05-04 19:37 | 52.18982 | -1.07944 | 11038 ft | 306 kts | 62° |
| 2026-05-04 19:37 | 52.19996 | -1.04825 | 11025 ft | 305 kts | 60° |
| 2026-05-04 19:37 | 52.20861 | -1.02117 | 11004 ft | 293 kts | 62° |
| 2026-05-04 19:37 | 52.21877 | -0.99018 | 11021 ft | 316 kts | 62° |
| 2026-05-04 19:38 | 52.22877 | -0.95889 | 11046 ft | 307 kts | 63° |
| 2026-05-04 19:38 | 52.23844 | -0.92715 | 11036 ft | 307 kts | 60° |
| 2026-05-04 19:38 | 52.24850 | -0.89773 | 11053 ft | 294 kts | 63° |
| 2026-05-04 19:38 | 52.25825 | -0.86671 | 11055 ft | 313 kts | 62° |
| 2026-05-04 19:39 | 52.26811 | -0.83642 | 11046 ft | 303 kts | 62° |
| 2026-05-04 19:39 | 52.27752 | -0.80661 | 11078 ft | 294 kts | 63° |
| 2026-05-04 19:39 | 52.28684 | -0.77653 | 11027 ft | 299 kts | 61° |
| 2026-05-04 19:39 | 52.29699 | -0.74565 | 11022 ft | 314 kts | 62° |
| 2026-05-04 19:40 | 52.30670 | -0.71563 | 11023 ft | 299 kts | 62° |
| 2026-05-04 19:40 | 52.31651 | -0.68478 | 11056 ft | 308 kts | 62° |
| 2026-05-04 19:40 | 52.32619 | -0.65405 | 11026 ft | 297 kts | 62° |
| 2026-05-04 19:40 | 52.33572 | -0.62407 | 11049 ft | 295 kts | 62° |
| 2026-05-04 19:41 | 52.34540 | -0.59418 | 11057 ft | 305 kts | 62° |
| 2026-05-04 19:41 | 52.35546 | -0.56277 | 11055 ft | 313 kts | 62° |
| 2026-05-04 19:41 | 52.36499 | -0.53217 | 11061 ft | 291 kts | 65° |
| 2026-05-04 19:41 | 52.37339 | -0.50198 | 11061 ft | 303 kts | 66° |
| 2026-05-04 19:42 | 52.38201 | -0.46989 | 10658 ft | 303 kts | 66° |
| 2026-05-04 19:42 | 52.38967 | -0.43939 | 9899 ft | 273 kts | 66° |
| 2026-05-04 19:42 | 52.39786 | -0.41333 | 9068 ft | 244 kts | 69° |
| 2026-05-04 19:42 | 52.40328 | -0.38842 | 8414 ft | 221 kts | 65° |
| 2026-05-04 19:43 | 52.40929 | -0.36586 | 7643 ft | 212 kts | 66° |
| 2026-05-04 19:43 | 52.41484 | -0.34384 | 6887 ft | 207 kts | 66° |
| 2026-05-04 19:43 | 52.42024 | -0.32225 | 6148 ft | 203 kts | 66° |
| 2026-05-04 19:43 | 52.42558 | -0.30105 | 5440 ft | 201 kts | 66° |
| 2026-05-04 19:44 | 52.43105 | -0.27966 | 5086 ft | 207 kts | 65° |
| 2026-05-04 19:44 | 52.43712 | -0.25632 | 5026 ft | 246 kts | 65° |
| 2026-05-04 19:44 | 52.44408 | -0.22975 | 5000 ft | 257 kts | 65° |
| 2026-05-04 19:44 | 52.45119 | -0.20258 | 4995 ft | 261 kts | 65° |
| 2026-05-04 19:45 | 52.45829 | -0.17542 | 4992 ft | 255 kts | 66° |
| 2026-05-04 19:45 | 52.46524 | -0.14880 | 4992 ft | 252 kts | 65° |
| 2026-05-04 19:45 | 52.47226 | -0.12188 | 4997 ft | 264 kts | 65° |
| 2026-05-04 19:45 | 52.47959 | -0.09373 | 4997 ft | 270 kts | 66° |
| 2026-05-04 19:46 | 52.48696 | -0.06532 | 4998 ft | 272 kts | 66° |
| 2026-05-04 19:46 | 52.49426 | -0.03707 | 4994 ft | 272 kts | 66° |
| 2026-05-04 19:46 | 52.50162 | -0.00855 | 4998 ft | 272 kts | 66° |
| 2026-05-04 19:46 | 52.50901 | 0.02010 | 4989 ft | 271 kts | 66° |
| 2026-05-04 19:47 | 52.51640 | 0.04875 | 4992 ft | 272 kts | 66° |
| 2026-05-04 19:47 | 52.52381 | 0.07751 | 4990 ft | 272 kts | 66° |
| 2026-05-04 19:47 | 52.53114 | 0.10601 | 4988 ft | 269 kts | 65° |
| 2026-05-04 19:47 | 52.53832 | 0.13396 | 4990 ft | 268 kts | 65° |
| 2026-05-04 19:48 | 52.54558 | 0.16222 | 4993 ft | 268 kts | 66° |
| 2026-05-04 19:48 | 52.55284 | 0.19053 | 4992 ft | 268 kts | 66° |
| 2026-05-04 19:48 | 52.56008 | 0.21876 | 4992 ft | 268 kts | 66° |
| 2026-05-04 19:48 | 52.56729 | 0.24693 | 4989 ft | 268 kts | 65° |
| 2026-05-04 19:49 | 52.57450 | 0.27515 | 4992 ft | 268 kts | 66° |
| 2026-05-04 19:49 | 52.58174 | 0.30352 | 4993 ft | 268 kts | 65° |
| 2026-05-04 19:49 | 52.58895 | 0.33176 | 4992 ft | 268 kts | 66° |
| 2026-05-04 19:49 | 52.59614 | 0.36001 | 4992 ft | 268 kts | 66° |
| 2026-05-04 19:50 | 52.60325 | 0.38795 | 4993 ft | 268 kts | 66° |
| 2026-05-04 19:50 | 52.61044 | 0.41627 | 4995 ft | 268 kts | 66° |
| 2026-05-04 19:50 | 52.61764 | 0.44463 | 4992 ft | 268 kts | 66° |
| 2026-05-04 19:50 | 52.62480 | 0.47291 | 4992 ft | 267 kts | 65° |
| 2026-05-04 19:51 | 52.63196 | 0.50121 | 4995 ft | 268 kts | 66° |
| 2026-05-04 19:51 | 52.63914 | 0.52958 | 4996 ft | 269 kts | 65° |
| 2026-05-04 19:51 | 52.64865 | 0.55591 | 4991 ft | 268 kts | 49° |
| 2026-05-04 19:51 | 52.66083 | 0.57915 | 4993 ft | 267 kts | 49° |
| 2026-05-04 19:52 | 52.67189 | 0.60250 | 4981 ft | 250 kts | 51° |
| 2026-05-04 19:52 | 52.68217 | 0.62476 | 4704 ft | 247 kts | 51° |
| 2026-05-04 19:52 | 52.69271 | 0.64765 | 4102 ft | 255 kts | 51° |
| 2026-05-04 19:52 | 52.70364 | 0.67120 | 3487 ft | 261 kts | 51° |
| 2026-05-04 19:53 | 52.71469 | 0.69511 | 2872 ft | 264 kts | 51° |
| 2026-05-04 19:53 | 52.72574 | 0.71899 | 2548 ft | 255 kts | 51° |
| 2026-05-04 19:53 | 52.73617 | 0.74159 | 2496 ft | 239 kts | 51° |
| 2026-05-04 19:53 | 52.74586 | 0.76272 | 2490 ft | 222 kts | 51° |
| 2026-05-04 19:54 | 52.75470 | 0.78211 | 2497 ft | 207 kts | 51° |
| 2026-05-04 19:54 | 52.76293 | 0.80133 | 2500 ft | 204 kts | 54° |
| 2026-05-04 19:54 | 52.77070 | 0.82082 | 2498 ft | 202 kts | 55° |
| 2026-05-04 19:54 | 52.77837 | 0.84028 | 2500 ft | 202 kts | 55° |
| 2026-05-04 19:55 | 52.78593 | 0.85949 | 2493 ft | 196 kts | 55° |
| 2026-05-04 19:55 | 52.79319 | 0.87791 | 2498 ft | 193 kts | 55° |
| 2026-05-04 19:55 | 52.80044 | 0.89642 | 2497 ft | 191 kts | 55° |
| 2026-05-04 19:55 | 52.80765 | 0.91486 | 2448 ft | 191 kts | 55° |
| 2026-05-04 19:56 | 52.81490 | 0.93332 | 2115 ft | 190 kts | 55° |
| 2026-05-04 19:56 | 52.82210 | 0.95165 | 1758 ft | 190 kts | 56° |
| 2026-05-04 19:56 | 52.82922 | 0.96998 | 1403 ft | 188 kts | 56° |
| 2026-05-04 19:56 | 52.83824 | 0.98503 | 1292 ft | 185 kts | 22° |
| 2026-05-04 19:57 | 52.85077 | 0.98633 | 1202 ft | 185 kts | 342° |
| 2026-05-04 19:57 | 52.86029 | 0.97431 | 1322 ft | 168 kts | 306° |
| 2026-05-04 19:57 | 52.86671 | 0.95865 | 1416 ft | 159 kts | 306° |
| 2026-05-04 19:57 | 52.87292 | 0.94350 | 1473 ft | 158 kts | 306° |
| 2026-05-04 19:58 | 52.87892 | 0.92820 | 1463 ft | 159 kts | 305° |
| 2026-05-04 19:58 | 52.88505 | 0.91298 | 1346 ft | 158 kts | 306° |
| 2026-05-04 19:58 | 52.89084 | 0.89744 | 1216 ft | 159 kts | 296° |
| 2026-05-04 19:58 | 52.89323 | 0.87972 | 1129 ft | 156 kts | 270° |
| 2026-05-04 19:59 | 52.89110 | 0.86266 | 1017 ft | 149 kts | 247° |
| 2026-05-04 19:59 | 52.88544 | 0.84857 | 968 ft | 150 kts | 237° |
| 2026-05-04 19:59 | 52.87962 | 0.83436 | 964 ft | 149 kts | 237° |
| 2026-05-04 19:59 | 52.87368 | 0.82032 | 973 ft | 149 kts | 235° |
| 2026-05-04 20:00 | 52.86756 | 0.80652 | 985 ft | 147 kts | 235° |
| 2026-05-04 20:00 | 52.86148 | 0.79277 | 984 ft | 148 kts | 234° |
| 2026-05-04 20:00 | 52.85515 | 0.77947 | 968 ft | 148 kts | 231° |
| 2026-05-04 20:00 | 52.84872 | 0.76618 | 946 ft | 148 kts | 232° |
| 2026-05-04 20:01 | 52.84220 | 0.75297 | 907 ft | 148 kts | 229° |
| 2026-05-04 20:01 | 52.83541 | 0.74020 | 850 ft | 148 kts | 229° |
| 2026-05-04 20:01 | 52.82859 | 0.72745 | 898 ft | 148 kts | 229° |
| 2026-05-04 20:01 | 52.82536 | 0.71294 | 789 ft | 140 kts | 291° |
| 2026-05-04 20:02 | 52.83240 | 0.70217 | 965 ft | 149 kts | 346° |
| 2026-05-04 20:02 | 52.84198 | 0.70692 | 1192 ft | 156 kts | 48° |
| 2026-05-04 20:02 | 52.84849 | 0.72216 | 1289 ft | 163 kts | 51° |
| 2026-05-04 20:02 | 52.85503 | 0.73759 | 1341 ft | 163 kts | 54° |
| 2026-05-04 20:03 | 52.86133 | 0.75313 | 1372 ft | 160 kts | 53° |
| 2026-05-04 20:03 | 52.86763 | 0.76810 | 1380 ft | 157 kts | 54° |
| 2026-05-04 20:03 | 52.87365 | 0.78290 | 1393 ft | 157 kts | 54° |
| 2026-05-04 20:03 | 52.87970 | 0.79789 | 1381 ft | 156 kts | 54° |
| 2026-05-04 20:04 | 52.88577 | 0.81277 | 1393 ft | 156 kts | 54° |
| 2026-05-04 20:04 | 52.89167 | 0.82793 | 1425 ft | 157 kts | 54° |
| 2026-05-04 20:04 | 52.89798 | 0.84263 | 1453 ft | 157 kts | 52° |
| 2026-05-04 20:04 | 52.90438 | 0.85731 | 1509 ft | 158 kts | 50° |
| 2026-05-04 20:05 | 52.91057 | 0.87224 | 1615 ft | 158 kts | 71° |
| 2026-05-04 20:05 | 52.90674 | 0.88814 | 1583 ft | 164 kts | 150° |
| 2026-05-04 20:05 | 52.89569 | 0.88818 | 1505 ft | 165 kts | 211° |
| 2026-05-04 20:05 | 52.89055 | 0.87262 | 1518 ft | 159 kts | 271° |
| 2026-05-04 20:06 | 52.88610 | 0.85646 | 1336 ft | 158 kts | 233° |
| 2026-05-04 20:06 | 52.88006 | 0.84219 | 1194 ft | 148 kts | 237° |
| 2026-05-04 20:06 | 52.87419 | 0.82826 | 1097 ft | 148 kts | 237° |
| 2026-05-04 20:06 | 52.86863 | 0.81393 | 1041 ft | 148 kts | 239° |
| 2026-05-04 20:07 | 52.86303 | 0.79950 | 957 ft | 148 kts | 238° |
| 2026-05-04 20:07 | 52.85723 | 0.78526 | 916 ft | 150 kts | 235° |
| 2026-05-04 20:07 | 52.85122 | 0.77149 | 915 ft | 149 kts | 234° |
| 2026-05-04 20:07 | 52.84530 | 0.75751 | 904 ft | 148 kts | 235° |
| 2026-05-04 20:08 | 52.83908 | 0.74392 | 915 ft | 148 kts | 230° |
| 2026-05-04 20:08 | 52.83228 | 0.73079 | 960 ft | 157 kts | 230° |
| 2026-05-04 20:08 | 52.82391 | 0.71741 | 1234 ft | 179 kts | 209° |
| 2026-05-04 20:08 | 52.81113 | 0.71458 | 1768 ft | 199 kts | 170° |
| 2026-05-04 20:09 | 52.79715 | 0.72251 | 2237 ft | 229 kts | 149° |
| 2026-05-04 20:09 | 52.78473 | 0.74101 | 2381 ft | 253 kts | 126° |
| 2026-05-04 20:09 | 52.77575 | 0.76664 | 2204 ft | 258 kts | 112° |
| 2026-05-04 20:09 | 52.76983 | 0.79501 | 2386 ft | 266 kts | 104° |
| 2026-05-04 20:10 | 52.76455 | 0.82500 | 3175 ft | 274 kts | 104° |
| 2026-05-04 20:10 | 52.75931 | 0.85473 | 3736 ft | 268 kts | 105° |
| 2026-05-04 20:10 | 52.75422 | 0.88407 | 3967 ft | 269 kts | 105° |
| 2026-05-04 20:10 | 52.74911 | 0.91371 | 4003 ft | 269 kts | 104° |
| 2026-05-04 20:11 | 52.74522 | 0.93625 | 4001 ft | 268 kts | 104° |
| 2026-05-04 20:11 | 52.74009 | 0.96583 | 4001 ft | 268 kts | 105° |
| 2026-05-04 20:11 | 52.73494 | 0.99549 | 4001 ft | 268 kts | 104° |
| 2026-05-04 20:11 | 52.72981 | 1.02513 | 4015 ft | 268 kts | 105° |
| 2026-05-04 20:12 | 52.72360 | 1.05420 | 4013 ft | 270 kts | 119° |
| 2026-05-04 20:12 | 52.71112 | 1.07683 | 3951 ft | 263 kts | 143° |
| 2026-05-04 20:12 | 52.69637 | 1.09360 | 3739 ft | 253 kts | 146° |
| 2026-05-04 20:12 | 52.68149 | 1.11031 | 2801 ft | 256 kts | 143° |
| 2026-05-04 20:13 | 52.67055 | 1.13079 | 1927 ft | 233 kts | 108° |
| 2026-05-04 20:13 | 52.67061 | 1.15510 | 1166 ft | 205 kts | 72° |
| 2026-05-04 20:13 | 52.67448 | 1.17667 | 987 ft | 180 kts | 72° |
| 2026-05-04 20:13 | 52.67553 | 1.19511 | 853 ft | 150 kts | 90° |
| 2026-05-04 20:14 | 52.67525 | 1.21235 | 777 ft | 143 kts | 87° |
| 2026-05-04 20:14 | 52.67551 | 1.22879 | 649 ft | 142 kts | 86° |
| 2026-05-04 20:14 | 52.67573 | 1.24508 | 496 ft | 144 kts | 88° |
| 2026-05-04 20:14 | 52.67573 | 1.26141 | 265 ft | 141 kts | 88° |
| 2026-05-04 20:15 | 52.67592 | 1.27627 | 132 ft | 100 kts | 88° |
| 2026-05-04 20:15 | 52.67597 | 1.28924 | 142 ft | 145 kts | 89° |
| 2026-05-04 20:15 | 52.67592 | 1.30754 | 739 ft | 169 kts | 88° |
| 2026-05-04 20:15 | 52.67691 | 1.32803 | 1149 ft | 199 kts | 64° |
| 2026-05-04 20:16 | 52.68739 | 1.34242 | 1158 ft | 205 kts | 13° |
| 2026-05-04 20:16 | 52.70083 | 1.33740 | 1248 ft | 204 kts | 322° |
| 2026-05-04 20:16 | 52.70646 | 1.31716 | 1513 ft | 190 kts | 274° |
| 2026-05-04 20:16 | 52.70690 | 1.29670 | 1560 ft | 174 kts | 276° |
| 2026-05-04 20:17 | 52.70743 | 1.27697 | 1550 ft | 165 kts | 276° |
| 2026-05-04 20:17 | 52.70764 | 1.25897 | 1528 ft | 147 kts | 274° |
| 2026-05-04 20:17 | 52.70744 | 1.24290 | 1431 ft | 135 kts | 271° |
| 2026-05-04 20:17 | 52.70741 | 1.22804 | 1275 ft | 124 kts | 277° |
| 2026-05-04 20:18 | 52.70687 | 1.21380 | 1606 ft | 124 kts | 266° |
| 2026-05-04 20:18 | 52.70588 | 1.19930 | 2192 ft | 129 kts | 270° |
| 2026-05-04 20:18 | 52.70432 | 1.18378 | 2659 ft | 148 kts | 261° |
| 2026-05-04 20:18 | 52.70148 | 1.16538 | 3094 ft | 184 kts | 256° |
| 2026-05-04 20:19 | 52.69757 | 1.14432 | 3977 ft | 196 kts | 254° |
| 2026-05-04 20:19 | 52.69326 | 1.12279 | 5191 ft | 198 kts | 253° |
| 2026-05-04 20:19 | 52.68888 | 1.10127 | 6535 ft | 197 kts | 253° |
| 2026-05-04 20:19 | 52.68453 | 1.07973 | 7837 ft | 198 kts | 253° |
| 2026-05-04 20:20 | 52.68026 | 1.05818 | 9076 ft | 203 kts | 253° |
| 2026-05-04 20:20 | 52.67585 | 1.03550 | 10168 ft | 212 kts | 253° |
| 2026-05-04 20:20 | 52.67133 | 1.01197 | 10776 ft | 218 kts | 253° |
| 2026-05-04 20:20 | 52.66665 | 0.98749 | 11047 ft | 240 kts | 253° |
| 2026-05-04 20:21 | 52.66126 | 0.95914 | 11087 ft | 273 kts | 253° |
| 2026-05-04 20:21 | 52.65544 | 0.92864 | 11057 ft | 283 kts | 253° |
| 2026-05-04 20:21 | 52.64345 | 0.86608 | 11061 ft | 299 kts | 252° |
| 2026-05-04 20:22 | 52.63697 | 0.83240 | 11059 ft | 315 kts | 252° |
| 2026-05-04 20:22 | 52.63027 | 0.79765 | 11047 ft | 320 kts | 252° |
| 2026-05-04 20:22 | 52.62351 | 0.76268 | 11051 ft | 321 kts | 252° |
| 2026-05-04 20:22 | 52.61670 | 0.72750 | 11048 ft | 322 kts | 252° |
| 2026-05-04 20:23 | 52.60990 | 0.69247 | 11051 ft | 322 kts | 252° |
| 2026-05-04 20:23 | 52.60308 | 0.65733 | 11045 ft | 322 kts | 252° |
| 2026-05-04 20:23 | 52.59626 | 0.62230 | 11044 ft | 322 kts | 252° |
| 2026-05-04 20:23 | 52.58941 | 0.58717 | 11038 ft | 322 kts | 252° |
| 2026-05-04 20:24 | 52.58257 | 0.55215 | 11046 ft | 322 kts | 252° |
| 2026-05-04 20:24 | 52.57581 | 0.51757 | 11050 ft | 322 kts | 252° |
| 2026-05-04 20:24 | 52.56893 | 0.48245 | 11046 ft | 322 kts | 252° |
| 2026-05-04 20:24 | 52.56205 | 0.44741 | 11049 ft | 322 kts | 252° |
| 2026-05-04 20:25 | 52.55515 | 0.41234 | 11050 ft | 322 kts | 252° |
| 2026-05-04 20:25 | 52.54826 | 0.37741 | 11054 ft | 322 kts | 252° |
| 2026-05-04 20:25 | 52.54135 | 0.34239 | 11052 ft | 322 kts | 252° |
| 2026-05-04 20:25 | 52.53442 | 0.30733 | 11052 ft | 322 kts | 252° |
| 2026-05-04 20:26 | 52.52750 | 0.27240 | 11048 ft | 322 kts | 252° |
| 2026-05-04 20:26 | 52.52066 | 0.23798 | 11044 ft | 322 kts | 252° |
| 2026-05-04 20:26 | 52.51369 | 0.20288 | 11047 ft | 322 kts | 252° |
| 2026-05-04 20:26 | 52.50673 | 0.16797 | 11047 ft | 323 kts | 252° |
| 2026-05-04 20:27 | 52.49973 | 0.13291 | 11047 ft | 322 kts | 252° |
| 2026-05-04 20:27 | 52.49274 | 0.09794 | 11051 ft | 323 kts | 252° |
| 2026-05-04 20:27 | 52.48573 | 0.06290 | 11050 ft | 323 kts | 252° |
| 2026-05-04 20:27 | 52.47871 | 0.02793 | 11050 ft | 323 kts | 252° |
| 2026-05-04 20:28 | 52.47166 | -0.00715 | 11058 ft | 323 kts | 252° |
| 2026-05-04 20:28 | 52.46463 | -0.04206 | 11052 ft | 323 kts | 252° |
| 2026-05-04 20:28 | 52.45759 | -0.07695 | 11051 ft | 322 kts | 252° |
| 2026-05-04 20:28 | 52.45053 | -0.11190 | 11049 ft | 322 kts | 252° |
| 2026-05-04 20:29 | 52.44356 | -0.14634 | 11044 ft | 323 kts | 252° |
| 2026-05-04 20:29 | 52.43648 | -0.18127 | 11047 ft | 323 kts | 252° |
| 2026-05-04 20:29 | 52.42936 | -0.21628 | 11049 ft | 323 kts | 252° |
| 2026-05-04 20:29 | 52.42228 | -0.25111 | 11049 ft | 323 kts | 252° |
| 2026-05-04 20:30 | 52.41514 | -0.28610 | 11047 ft | 322 kts | 251° |
| 2026-05-04 20:30 | 52.40803 | -0.32092 | 11050 ft | 322 kts | 251° |
| 2026-05-04 20:30 | 52.40082 | -0.35619 | 11056 ft | 332 kts | 251° |
| 2026-05-04 20:30 | 52.39338 | -0.39246 | 11050 ft | 337 kts | 251° |
| 2026-05-04 20:31 | 52.38590 | -0.42891 | 11047 ft | 338 kts | 251° |
| 2026-05-04 20:31 | 52.37839 | -0.46542 | 11049 ft | 338 kts | 251° |
| 2026-05-04 20:31 | 52.37097 | -0.50143 | 11048 ft | 338 kts | 251° |
| 2026-05-04 20:31 | 52.36257 | -0.53736 | 11049 ft | 339 kts | 246° |
| 2026-05-04 20:32 | 52.35262 | -0.57239 | 11048 ft | 339 kts | 244° |
| 2026-05-04 20:32 | 52.34213 | -0.60702 | 11041 ft | 339 kts | 243° |
| 2026-05-04 20:32 | 52.33133 | -0.64127 | 11049 ft | 339 kts | 243° |
| 2026-05-04 20:32 | 52.32034 | -0.67548 | 11048 ft | 339 kts | 242° |
| 2026-05-04 20:33 | 52.30949 | -0.70910 | 11039 ft | 339 kts | 242° |
| 2026-05-04 20:33 | 52.29845 | -0.74325 | 11046 ft | 339 kts | 242° |
| 2026-05-04 20:33 | 52.28747 | -0.77735 | 11042 ft | 339 kts | 243° |
| 2026-05-04 20:33 | 52.27649 | -0.81150 | 11034 ft | 339 kts | 243° |
| 2026-05-04 20:34 | 52.26556 | -0.84553 | 11038 ft | 338 kts | 243° |
| 2026-05-04 20:34 | 52.25463 | -0.87956 | 11042 ft | 338 kts | 243° |
| 2026-05-04 20:34 | 52.24371 | -0.91357 | 11043 ft | 338 kts | 243° |
| 2026-05-04 20:34 | 52.23276 | -0.94761 | 11045 ft | 338 kts | 243° |
| 2026-05-04 20:35 | 52.22181 | -0.98159 | 11047 ft | 338 kts | 243° |
| 2026-05-04 20:35 | 52.21097 | -1.01519 | 11047 ft | 338 kts | 242° |
| 2026-05-04 20:35 | 52.20004 | -1.04901 | 11049 ft | 338 kts | 242° |
| 2026-05-04 20:35 | 52.18907 | -1.08293 | 11049 ft | 338 kts | 242° |
| 2026-05-04 20:36 | 52.17804 | -1.11695 | 11044 ft | 338 kts | 242° |
| 2026-05-04 20:36 | 52.16705 | -1.15082 | 11044 ft | 338 kts | 242° |
| 2026-05-04 20:36 | 52.15606 | -1.18464 | 11047 ft | 338 kts | 242° |
| 2026-05-04 20:36 | 52.14520 | -1.21802 | 11043 ft | 338 kts | 242° |
| 2026-05-04 20:37 | 52.13404 | -1.25224 | 11044 ft | 338 kts | 242° |
| 2026-05-04 20:37 | 52.12304 | -1.28596 | 11047 ft | 338 kts | 242° |
| 2026-05-04 20:37 | 52.11211 | -1.31942 | 11042 ft | 338 kts | 242° |
| 2026-05-04 20:37 | 52.10104 | -1.35325 | 11051 ft | 338 kts | 242° |
| 2026-05-04 20:38 | 52.08997 | -1.38703 | 11050 ft | 338 kts | 242° |
| 2026-05-04 20:38 | 52.07890 | -1.42077 | 11044 ft | 338 kts | 242° |
| 2026-05-04 20:38 | 52.06795 | -1.45411 | 11048 ft | 338 kts | 242° |
| 2026-05-04 20:38 | 52.05688 | -1.48775 | 11044 ft | 338 kts | 242° |
| 2026-05-04 20:39 | 52.04578 | -1.52145 | 11049 ft | 338 kts | 242° |
| 2026-05-04 20:39 | 52.03463 | -1.55526 | 11040 ft | 338 kts | 242° |
| 2026-05-04 20:39 | 52.02352 | -1.58887 | 11041 ft | 338 kts | 242° |
| 2026-05-04 20:39 | 52.01237 | -1.62257 | 11041 ft | 338 kts | 242° |
| 2026-05-04 20:40 | 52.00124 | -1.65618 | 11040 ft | 338 kts | 242° |
| 2026-05-04 20:40 | 51.99010 | -1.68978 | 11038 ft | 338 kts | 242° |
| 2026-05-04 20:40 | 51.97892 | -1.72342 | 11041 ft | 338 kts | 242° |
| 2026-05-04 20:40 | 51.96777 | -1.75696 | 11040 ft | 338 kts | 242° |
| 2026-05-04 20:41 | 51.95656 | -1.79059 | 11049 ft | 338 kts | 241° |
| 2026-05-04 20:41 | 51.94270 | -1.82044 | 10975 ft | 335 kts | 222° |
| 2026-05-04 20:41 | 51.92290 | -1.83870 | 10330 ft | 328 kts | 198° |
| 2026-05-04 20:41 | 51.90022 | -1.84171 | 9445 ft | 326 kts | 177° |
| 2026-05-04 20:42 | 51.87888 | -1.83758 | 8662 ft | 288 kts | 173° |
| 2026-05-04 20:42 | 51.85972 | -1.83322 | 7500 ft | 272 kts | 174° |
| 2026-05-04 20:42 | 51.84124 | -1.82932 | 6230 ft | 265 kts | 174° |
| 2026-05-04 20:42 | 51.82322 | -1.82587 | 5171 ft | 254 kts | 174° |
| 2026-05-04 20:43 | 51.80600 | -1.82280 | 4209 ft | 245 kts | 174° |
| 2026-05-04 20:43 | 51.78923 | -1.81996 | 3294 ft | 238 kts | 173° |
| 2026-05-04 20:43 | 51.77332 | -1.81736 | 2633 ft | 222 kts | 172° |
| 2026-05-04 20:43 | 51.75883 | -1.81506 | 2329 ft | 199 kts | 171° |
| 2026-05-04 20:44 | 51.74540 | -1.81290 | 2286 ft | 195 kts | 171° |
| 2026-05-04 20:44 | 51.73223 | -1.80876 | 2288 ft | 191 kts | 156° |
| 2026-05-04 20:44 | 51.72157 | -1.79686 | 2289 ft | 184 kts | 126° |
| 2026-05-04 20:44 | 51.71637 | -1.77897 | 2284 ft | 165 kts | 97° |
| 2026-05-04 20:45 | 51.71700 | -1.76189 | 2284 ft | 145 kts | 73° |
| 2026-05-04 20:45 | 51.71988 | -1.74650 | 2274 ft | 142 kts | 71° |
| 2026-05-04 20:45 | 51.72269 | -1.73134 | 2102 ft | 140 kts | 72° |
| 2026-05-04 20:45 | 51.72539 | -1.71652 | 1887 ft | 139 kts | 72° |
| 2026-05-04 20:46 | 51.72812 | -1.70166 | 1680 ft | 137 kts | 71° |
| 2026-05-04 20:46 | 51.73083 | -1.68690 | 1477 ft | 137 kts | 71° |
| 2026-05-04 20:46 | 51.73356 | -1.67210 | 1280 ft | 138 kts | 72° |
| 2026-05-04 20:46 | 51.73630 | -1.65710 | 1073 ft | 140 kts | 72° |
| 2026-05-04 20:47 | 51.73909 | -1.64205 | 825 ft | 139 kts | 72° |
| 2026-05-04 20:47 | 51.74192 | -1.62694 | 631 ft | 141 kts | 73° |
| 2026-05-04 20:47 | 51.74468 | -1.61183 | 430 ft | 139 kts | 74° |
| 2026-05-04 20:47 | 51.74737 | -1.59699 | 275 ft | 128 kts | 73° |
| 2026-05-04 20:48 | 51.74906 | -1.58787 | 275 ft | 54 kts | 73° |
| 2026-05-04 20:48 | 51.74994 | -1.58309 | 274 ft | 34 kts | 74° |
| 2026-05-04 20:48 | 51.75112 | -1.58084 | 277 ft | 24 kts | 29° |
| 2026-05-04 20:48 | 51.75249 | -1.57964 | 275 ft | 21 kts | 28° |
| 2026-05-04 20:49 | 51.75371 | -1.57858 | 274 ft | 18 kts | 28° |
| 2026-05-04 20:49 | 51.75479 | -1.57769 | 273 ft | 17 kts | 27° |
| 2026-05-04 20:49 | 51.75642 | -1.57634 | 273 ft | 36 kts | 33° |
| 2026-05-04 20:49 | 51.75855 | -1.57543 | 273 ft | 29 kts | 19° |
| 2026-05-04 20:50 | 51.75928 | -1.57376 | 273 ft | 16 kts | 98° |
| 2026-05-04 20:50 | 51.75891 | -1.57137 | 273 ft | 22 kts | 118° |
| 2026-05-04 20:50 | 51.75833 | -1.57086 | 273 ft | 10 kts | 191° |
| 2026-05-04 20:50 | 51.75816 | -1.57124 | 273 ft | 0 kts | 251° |